TimeEDT,TemperatureF,Dew PointF,Humidity,Sea Level PressureIn,VisibilityMPH,Wind Direction,Wind SpeedMPH,Gust SpeedMPH,PrecipitationIn,Events,Conditions,WindDirDegrees,DateUTC
12:52 AM,39.2,28.4,65,-9999,85.0,NNW,42.6,-,N/A,,Partly Cloudy,330,2013-06-15 04:52:00
1:51 AM,37.4,26.6,65,-9999,85.0,NNW,41.4,-,N/A,,Partly Cloudy,330,2013-06-15 05:51:00
2:52 AM,37.4,28.4,70,-9999,85.0,NNW,41.4,-,N/A,,Partly Cloudy,330,2013-06-15 06:52:00
3:50 AM,35.6,28.4,75,-9999,80.0,NNW,38.0,-,N/A,,Partly Cloudy,330,2013-06-15 07:50:00
4:52 AM,35.6,28.4,75,-9999,85.0,NNW,40.3,-,N/A,,Partly Cloudy,330,2013-06-15 08:52:00
5:49 AM,35.6,28.4,75,-9999,95.0,NNW,39.1,47.2,N/A,,Clear,340,2013-06-15 09:49:00
6:51 AM,35.6,26.6,70,-9999,100.0,NNW,38.0,48.3,N/A,,Clear,330,2013-06-15 10:51:00
7:53 AM,35.6,24.8,65,-9999,105.0,NNW,36.8,44.9,N/A,,Clear,330,2013-06-15 11:53:00
8:52 AM,35.6,26.6,70,-9999,105.0,NNW,40.3,43.7,N/A,,Clear,330,2013-06-15 12:52:00
9:54 AM,35.6,28.4,75,-9999,105.0,NNW,26.5,38.0,N/A,,Partly Cloudy,330,2013-06-15 13:54:00
10:54 AM,37.4,32.0,81,-9999,100.0,NW,27.6,36.8,N/A,,Scattered Clouds,320,2013-06-15 14:54:00
11:51 AM,39.2,33.8,81,-9999,100.0,WNW,34.5,40.3,N/A,,Scattered Clouds,300,2013-06-15 15:51:00
12:53 PM,41.0,30.2,65,-9999,100.0,NW,32.2,41.4,N/A,,Mostly Cloudy,310,2013-06-15 16:53:00
1:52 PM,42.8,32.0,66,-9999,95.0,WNW,33.4,38.0,N/A,,Mostly Cloudy,300,2013-06-15 17:52:00
2:53 PM,42.8,33.8,70,-9999,95.0,West,29.9,42.6,N/A,,Mostly Cloudy,270,2013-06-15 18:53:00
3:55 PM,42.8,32.0,66,-9999,95.0,WNW,35.7,43.7,N/A,,Mostly Cloudy,300,2013-06-15 19:55:00
4:54 PM,42.8,32.0,66,-9999,90.0,WNW,40.3,49.5,N/A,,Scattered Clouds,300,2013-06-15 20:54:00
5:50 PM,44.6,30.2,57,-9999,85.0,WNW,38.0,48.3,N/A,,Scattered Clouds,290,2013-06-15 21:50:00
6:52 PM,42.8,32.0,66,-9999,85.0,WNW,44.9,51.8,N/A,,Partly Cloudy,300,2013-06-15 22:52:00
7:52 PM,41.0,33.8,76,-9999,90.0,WNW,35.7,43.7,N/A,,Partly Cloudy,290,2013-06-15 23:52:00
8:52 PM,39.2,33.8,81,-9999,90.0,WNW,40.3,-,N/A,,Partly Cloudy,290,2013-06-16 00:52:00
9:51 PM,39.2,33.8,81,-9999,85.0,WNW,39.1,-,N/A,,Clear,290,2013-06-16 01:51:00
10:50 PM,39.2,33.8,81,-9999,85.0,WNW,41.4,-,N/A,,Partly Cloudy,290,2013-06-16 02:50:00
11:51 PM,39.2,33.8,81,-9999,80.0,WNW,40.3,-,N/A,,Partly Cloudy,290,2013-06-16 03:51:00